Time;durP1;ratioP1;P1;durP2;ratioP2;P2;SDS_P1;SDS_P2;PMS_P1;PMS_P2;Temp;Humidity;BMP_temperature;BMP_pressure;BME280_temperature;BME280_humidity;BME280_pressure;Samples;Min_cycle;Max_cycle;Signal;HPM_P1;HPM_P2
2021/05/07 00:01:16;;;;;;;1.88;0.35;;;;;;;;;;5085454;28;20028;-76
2021/05/07 00:03:43;;;;;;;3.63;0.60;;;;;;;;;;5096233;28;20040;-76
2021/05/07 00:06:10;;;;;;;2.58;0.70;;;;;;;;;;5085368;28;20021;-78
2021/05/07 00:08:37;;;;;;;1.98;0.45;;;;;;;;;;5076867;28;20523;-77
2021/05/07 00:11:24;;;;;;;2.08;0.52;;;;;;;;;;5076536;28;20481;-77
2021/05/07 00:13:50;;;;;;;2.72;0.40;;;;;;;;;;5076115;28;20024;-77
2021/05/07 00:16:16;;;;;;;1.35;0.40;;;;;;;;;;5076525;28;20042;-77
2021/05/07 00:18:42;;;;;;;2.80;0.50;;;;;;;;;;5077882;28;20025;-77
2021/05/07 00:21:09;;;;;;;1.70;0.20;;;;;;;;;;5091154;28;20031;-78
2021/05/07 00:23:36;;;;;;;0.32;0.32;;;;;;;;;;5097813;28;20089;-77
2021/05/07 00:26:02;;;;;;;0.57;0.20;;;;;;;;;;5089594;28;20439;-77
2021/05/07 00:28:29;;;;;;;0.15;0.10;;;;;;;;;;5078192;28;20021;-77
2021/05/07 00:30:55;;;;;;;1.27;0.38;;;;;;;;;;5078309;28;20138;-77
2021/05/07 00:33:21;;;;;;;1.33;0.25;;;;;;;;;;5078106;28;20024;-77
2021/05/07 00:35:47;;;;;;;6.50;0.40;;;;;;;;;;5080621;28;20032;-75
2021/05/07 00:38:14;;;;;;;1.95;0.40;;;;;;;;;;5081364;28;20043;-76
2021/05/07 00:40:40;;;;;;;0.90;0.30;;;;;;;;;;5078329;28;20029;-77
2021/05/07 00:43:06;;;;;;;0.52;0.22;;;;;;;;;;5077260;28;20059;-77
2021/05/07 00:45:32;;;;;;;0.90;0.20;;;;;;;;;;5078968;28;20033;-77
2021/05/07 00:48:00;;;;;;;0.73;0.40;;;;;;;;;;5077422;28;20024;-77
2021/05/07 00:50:26;;;;;;;0.82;0.45;;;;;;;;;;5089509;28;20020;-78
2021/05/07 00:52:55;;;;;;;0.75;0.30;;;;;;;;;;5085453;28;20120;-76
2021/05/07 00:55:21;;;;;;;1.85;0.50;;;;;;;;;;5095063;28;20080;-77
2021/05/07 00:57:47;;;;;;;0.68;0.20;;;;;;;;;;5087145;28;20035;-76
2021/05/07 01:00:13;;;;;;;0.88;0.30;;;;;;;;;;5090571;28;20036;-76
2021/05/07 01:02:39;;;;;;;0.68;0.20;;;;;;;;;;5094359;28;20047;-76
2021/05/07 01:05:07;;;;;;;0.88;0.40;;;;;;;;;;5100731;28;20051;-76
2021/05/07 01:07:34;;;;;;;0.75;0.40;;;;;;;;;;5116735;28;20016;-76
2021/05/07 01:10:02;;;;;;;0.40;0.20;;;;;;;;;;5096908;28;20052;-77
2021/05/07 01:12:32;;;;;;;1.40;0.38;;;;;;;;;;5087055;28;20013;-76
2021/05/07 01:15:08;;;;;;;0.40;0.20;;;;;;;;;;5091019;28;20040;-75
2021/05/07 01:17:37;;;;;;;0.20;0.20;;;;;;;;;;5092874;28;20025;-76
2021/05/07 01:20:24;;;;;;;0.20;0.10;;;;;;;;;;5104063;28;20039;-76
2021/05/07 01:22:51;;;;;;;0.75;0.10;;;;;;;;;;5106583;28;20066;-75
2021/05/07 01:25:20;;;;;;;1.13;0.55;;;;;;;;;;5094483;28;20033;-77
2021/05/07 01:27:47;;;;;;;0.47;0.20;;;;;;;;;;5094019;28;20024;-76
2021/05/07 01:30:17;;;;;;;1.05;0.13;;;;;;;;;;5093970;28;20021;-76
2021/05/07 01:32:44;;;;;;;0.28;0.20;;;;;;;;;;5094592;28;20066;-76
2021/05/07 01:35:13;;;;;;;0.40;0.22;;;;;;;;;;5094517;28;20016;-76
2021/05/07 01:37:39;;;;;;;1.63;0.20;;;;;;;;;;5095835;28;20016;-76
2021/05/07 01:40:17;;;;;;;0.10;0.10;;;;;;;;;;5096049;28;20025;-76
2021/05/07 01:42:43;;;;;;;1.42;0.40;;;;;;;;;;5093771;28;20028;-76
2021/05/07 01:45:09;;;;;;;0.85;0.10;;;;;;;;;;5093169;28;20063;-76
2021/05/07 01:47:36;;;;;;;0.30;0.30;;;;;;;;;;5075386;28;20082;-76
2021/05/07 01:50:03;;;;;;;0.65;0.40;;;;;;;;;;5097034;28;20051;-76
2021/05/07 01:52:29;;;;;;;0.55;0.20;;;;;;;;;;5106983;28;20038;-76
2021/05/07 01:54:55;;;;;;;2.63;0.30;;;;;;;;;;5105918;28;20024;-76
2021/05/07 01:57:27;;;;;;;0.60;0.20;;;;;;;;;;5092758;28;20112;-76
2021/05/07 01:59:53;;;;;;;1.67;0.20;;;;;;;;;;5092159;28;20037;-76
2021/05/07 02:02:19;;;;;;;1.17;0.30;;;;;;;;;;5091563;28;20032;-76
2021/05/07 02:04:45;;;;;;;0.55;0.20;;;;;;;;;;5092606;28;20033;-76
2021/05/07 02:07:11;;;;;;;2.22;0.40;;;;;;;;;;5090447;28;20043;-75
2021/05/07 02:09:37;;;;;;;1.13;0.30;;;;;;;;;;5088975;28;20079;-76
2021/05/07 02:12:04;;;;;;;2.40;0.30;;;;;;;;;;5081642;28;20082;-77
2021/05/07 02:14:30;;;;;;;0.52;0.17;;;;;;;;;;5080050;28;20028;-76
2021/05/07 02:16:57;;;;;;;3.53;0.95;;;;;;;;;;5077912;28;20559;-77
2021/05/07 02:19:23;;;;;;;1.60;0.40;;;;;;;;;;5077255;28;20021;-76
2021/05/07 02:21:50;;;;;;;0.80;0.30;;;;;;;;;;5093884;28;20063;-76
2021/05/07 02:24:16;;;;;;;3.92;0.40;;;;;;;;;;5109498;28;20032;-76
2021/05/07 02:26:42;;;;;;;0.75;0.30;;;;;;;;;;5086146;28;20020;-77
2021/05/07 02:29:08;;;;;;;1.50;0.20;;;;;;;;;;5080085;28;20016;-77
2021/05/07 02:31:34;;;;;;;1.67;0.47;;;;;;;;;;5081402;28;20053;-77
2021/05/07 02:34:00;;;;;;;0.35;0.20;;;;;;;;;;5082009;28;20103;-77
2021/05/07 02:36:26;;;;;;;1.17;0.20;;;;;;;;;;5080838;28;20033;-78
2021/05/07 02:38:52;;;;;;;1.05;0.30;;;;;;;;;;5081842;28;20040;-77
2021/05/07 02:41:19;;;;;;;2.25;0.40;;;;;;;;;;5084879;28;20099;-76
2021/05/07 02:43:45;;;;;;;0.52;0.30;;;;;;;;;;5082588;28;20027;-76
2021/05/07 02:46:14;;;;;;;1.65;0.40;;;;;;;;;;5079288;28;20024;-77
2021/05/07 02:48:40;;;;;;;3.20;0.40;;;;;;;;;;5081229;28;20055;-76
2021/05/07 02:51:06;;;;;;;1.88;0.50;;;;;;;;;;5085458;28;20026;-76
2021/05/07 02:53:33;;;;;;;1.48;0.10;;;;;;;;;;5099375;28;20028;-76
2021/05/07 02:56:00;;;;;;;0.70;0.52;;;;;;;;;;5092953;28;20481;-76
2021/05/07 02:58:26;;;;;;;1.70;0.77;;;;;;;;;;5078788;28;20029;-77
2021/05/07 03:00:52;;;;;;;0.93;0.30;;;;;;;;;;5080542;28;20377;-77
2021/05/07 03:03:18;;;;;;;1.05;0.25;;;;;;;;;;5081070;28;20024;-77
2021/05/07 03:05:44;;;;;;;1.25;0.32;;;;;;;;;;5082944;28;20032;-77
2021/05/07 03:08:10;;;;;;;0.32;0.30;;;;;;;;;;5084092;28;20047;-77
2021/05/07 03:10:36;;;;;;;0.80;0.25;;;;;;;;;;5083437;28;20036;-76
2021/05/07 03:13:02;;;;;;;1.20;0.20;;;;;;;;;;5083829;28;20114;-76
2021/05/07 03:15:29;;;;;;;1.13;0.30;;;;;;;;;;5084107;28;20040;-76
2021/05/07 03:17:55;;;;;;;0.88;0.30;;;;;;;;;;5080651;28;20035;-76
2021/05/07 03:20:22;;;;;;;0.47;0.32;;;;;;;;;;5083702;28;20031;-76
2021/05/07 03:22:48;;;;;;;0.38;0.20;;;;;;;;;;5101412;28;20028;-77
2021/05/07 03:25:15;;;;;;;0.50;0.20;;;;;;;;;;5093373;28;20031;-77
2021/05/07 03:27:41;;;;;;;1.70;0.28;;;;;;;;;;5081308;28;20025;-77
2021/05/07 03:30:07;;;;;;;0.32;0.17;;;;;;;;;;5080829;28;20023;-76
2021/05/07 03:32:33;;;;;;;0.75;0.30;;;;;;;;;;5080780;28;20047;-77
2021/05/07 03:34:59;;;;;;;2.10;0.35;;;;;;;;;;5082352;28;20020;-76
2021/05/07 03:37:26;;;;;;;1.15;0.30;;;;;;;;;;5081450;28;20018;-77
2021/05/07 03:39:52;;;;;;;1.85;0.35;;;;;;;;;;5080437;28;20544;-77
2021/05/07 03:42:18;;;;;;;3.70;0.60;;;;;;;;;;5082629;28;20043;-77
2021/05/07 03:44:44;;;;;;;1.00;0.35;;;;;;;;;;5082559;28;20028;-77
2021/05/07 03:47:10;;;;;;;2.63;0.30;;;;;;;;;;5083793;28;20078;-77
2021/05/07 03:49:36;;;;;;;1.48;0.38;;;;;;;;;;5079556;28;20021;-77
2021/05/07 03:52:02;;;;;;;1.38;0.32;;;;;;;;;;5078356;28;20031;-77
2021/05/07 03:54:29;;;;;;;2.50;0.60;;;;;;;;;;5100128;28;20187;-77
2021/05/07 03:56:55;;;;;;;4.38;0.60;;;;;;;;;;5087492;28;20039;-77
2021/05/07 03:59:21;;;;;;;1.65;0.28;;;;;;;;;;5081759;28;20024;-77
2021/05/07 04:01:47;;;;;;;3.20;0.50;;;;;;;;;;5081561;28;20032;-76
2021/05/07 04:04:13;;;;;;;0.45;0.45;;;;;;;;;;5085514;28;20129;-79
2021/05/07 04:06:39;;;;;;;4.40;0.85;;;;;;;;;;5091991;28;20519;-79
2021/05/07 04:09:10;;;;;;;3.20;0.82;;;;;;;;;;5082577;28;20461;-79
2021/05/07 04:14:14;;;;;;;1.10;0.57;;;;;;;;;;5075355;28;20573;-78
2021/05/07 04:16:41;;;;;;;2.58;0.43;;;;;;;;;;5075798;28;20028;-78
2021/05/07 04:19:07;;;;;;;2.63;0.35;;;;;;;;;;5075861;28;20044;-78
2021/05/07 04:21:33;;;;;;;2.08;0.47;;;;;;;;;;5088499;28;20124;-78
2021/05/07 04:23:59;;;;;;;0.57;0.50;;;;;;;;;;5074939;28;20040;-77
2021/05/07 04:26:25;;;;;;;2.22;0.60;;;;;;;;;;5076213;28;20020;-77
2021/05/07 04:28:51;;;;;;;2.28;1.02;;;;;;;;;;5083235;28;20040;-77
2021/05/07 04:31:17;;;;;;;1.25;0.40;;;;;;;;;;5079033;28;20100;-78
2021/05/07 04:33:43;;;;;;;3.00;0.63;;;;;;;;;;5073792;28;20082;-78
2021/05/07 04:36:09;;;;;;;2.05;0.65;;;;;;;;;;5079186;28;20453;-77
2021/05/07 04:38:37;;;;;;;3.22;0.60;;;;;;;;;;5073907;28;20024;-77
2021/05/07 04:41:03;;;;;;;3.20;0.68;;;;;;;;;;5074134;28;20044;-77
2021/05/07 04:43:29;;;;;;;2.03;0.43;;;;;;;;;;5075355;28;20096;-77
2021/05/07 04:45:55;;;;;;;2.25;0.50;;;;;;;;;;5074052;28;20392;-77
2021/05/07 04:48:21;;;;;;;1.85;0.60;;;;;;;;;;5073492;28;20020;-76
2021/05/07 04:50:47;;;;;;;1.88;0.55;;;;;;;;;;5080723;28;20476;-76
2021/05/07 04:53:13;;;;;;;3.35;0.43;;;;;;;;;;5092101;28;20070;-76
2021/05/07 04:55:39;;;;;;;3.25;0.70;;;;;;;;;;5090608;28;20040;-76
2021/05/07 04:58:05;;;;;;;6.20;1.30;;;;;;;;;;5083123;28;20036;-76
2021/05/07 05:00:32;;;;;;;2.25;0.82;;;;;;;;;;5077386;28;20138;-77
2021/05/07 05:02:58;;;;;;;2.13;0.65;;;;;;;;;;5077445;28;20025;-78
2021/05/07 05:05:24;;;;;;;2.05;0.77;;;;;;;;;;5076188;28;20040;-78
2021/05/07 05:07:50;;;;;;;3.53;0.65;;;;;;;;;;5075606;28;20031;-77
2021/05/07 05:10:17;;;;;;;2.50;0.90;;;;;;;;;;5075380;28;20040;-78
2021/05/07 05:12:43;;;;;;;2.08;0.40;;;;;;;;;;5075224;28;20024;-77
2021/05/07 05:15:09;;;;;;;1.27;0.30;;;;;;;;;;5075405;28;20388;-77
2021/05/07 05:17:35;;;;;;;1.63;0.40;;;;;;;;;;5074757;28;20056;-77
2021/05/07 05:20:03;;;;;;;2.08;0.50;;;;;;;;;;5079287;28;20020;-77
2021/05/07 05:22:29;;;;;;;1.15;0.22;;;;;;;;;;5087858;28;20028;-77
2021/05/07 05:24:55;;;;;;;0.60;0.30;;;;;;;;;;5093716;28;20038;-77
2021/05/07 05:27:21;;;;;;;1.75;0.50;;;;;;;;;;5070199;28;20016;-76
2021/05/07 05:29:47;;;;;;;1.08;0.57;;;;;;;;;;5074249;28;20104;-76
2021/05/07 05:32:13;;;;;;;3.38;0.90;;;;;;;;;;5074892;28;20094;-75
2021/05/07 05:34:39;;;;;;;2.85;0.70;;;;;;;;;;5075991;28;20060;-77
2021/05/07 05:37:05;;;;;;;0.70;0.60;;;;;;;;;;5094750;28;20452;-77
2021/05/07 05:39:31;;;;;;;0.85;0.30;;;;;;;;;;5095078;28;20048;-77
2021/05/07 05:41:58;;;;;;;1.63;0.60;;;;;;;;;;5079038;28;20048;-77
2021/05/07 05:44:24;;;;;;;1.52;0.30;;;;;;;;;;5075944;28;20028;-77
2021/05/07 05:46:50;;;;;;;1.58;0.80;;;;;;;;;;5077110;28;20024;-77
2021/05/07 05:49:16;;;;;;;3.35;0.80;;;;;;;;;;5078291;28;20020;-77
2021/05/07 05:51:42;;;;;;;2.13;0.63;;;;;;;;;;5085369;28;20235;-77
2021/05/07 05:54:08;;;;;;;1.45;0.68;;;;;;;;;;5074601;28;20119;-77
2021/05/07 05:56:34;;;;;;;3.78;0.70;;;;;;;;;;5074052;28;20033;-77
2021/05/07 05:59:01;;;;;;;1.75;0.50;;;;;;;;;;5072835;28;20120;-76
2021/05/07 06:01:27;;;;;;;2.65;1.02;;;;;;;;;;5072031;28;20028;-77
2021/05/07 06:03:53;;;;;;;1.05;0.93;;;;;;;;;;5072778;28;20037;-77
2021/05/07 06:06:19;;;;;;;3.83;1.27;;;;;;;;;;5073441;28;20365;-77
2021/05/07 06:08:45;;;;;;;16.92;8.68;;;;;;;;;;5076575;28;20071;-77
2021/05/07 06:11:11;;;;;;;3.28;1.45;;;;;;;;;;5074190;28;20021;-77
2021/05/07 06:13:37;;;;;;;1.30;0.40;;;;;;;;;;5073694;28;20097;-77
2021/05/07 06:16:04;;;;;;;5.15;2.33;;;;;;;;;;5074477;28;20465;-77
2021/05/07 06:18:30;;;;;;;7.50;4.88;;;;;;;;;;5077648;28;20024;-77
2021/05/07 06:20:57;;;;;;;5.07;2.40;;;;;;;;;;5093917;28;20073;-77
2021/05/07 06:23:23;;;;;;;1.50;1.38;;;;;;;;;;5073793;28;20028;-77
2021/05/07 06:25:49;;;;;;;1.63;1.08;;;;;;;;;;5074824;28;20075;-77
2021/05/07 06:28:16;;;;;;;10.02;7.70;;;;;;;;;;5073740;28;20461;-77
2021/05/07 06:30:42;;;;;;;8.88;5.95;;;;;;;;;;5074381;28;20058;-77
2021/05/07 06:33:08;;;;;;;3.45;3.10;;;;;;;;;;5074828;28;20035;-78
2021/05/07 06:35:34;;;;;;;2.60;2.28;;;;;;;;;;5072938;28;20033;-78
2021/05/07 06:38:02;;;;;;;4.38;2.97;;;;;;;;;;5074492;28;20036;-78
2021/05/07 06:40:28;;;;;;;4.85;1.85;;;;;;;;;;5072725;28;20024;-78
2021/05/07 06:42:54;;;;;;;1.90;1.02;;;;;;;;;;5073660;28;20032;-78
2021/05/07 06:45:20;;;;;;;2.28;0.60;;;;;;;;;;5074496;28;20041;-78
2021/05/07 06:47:46;;;;;;;1.23;0.50;;;;;;;;;;5075714;28;20021;-78
2021/05/07 06:50:13;;;;;;;0.57;0.40;;;;;;;;;;5085229;28;20173;-78
2021/05/07 06:52:40;;;;;;;0.22;0.10;;;;;;;;;;5076082;28;20113;-77
2021/05/07 06:55:07;;;;;;;3.30;0.30;;;;;;;;;;5075056;28;20401;-78
2021/05/07 06:57:33;;;;;;;0.30;0.30;;;;;;;;;;5074457;28;20044;-78
2021/05/07 06:59:59;;;;;;;1.92;1.60;;;;;;;;;;5073456;28;20047;-78
2021/05/07 07:02:25;;;;;;;1.38;1.27;;;;;;;;;;5074305;28;20021;-78
2021/05/07 07:04:51;;;;;;;1.73;1.63;;;;;;;;;;5075359;28;20028;-78
2021/05/07 07:07:18;;;;;;;0.95;0.88;;;;;;;;;;5075743;28;20047;-76
2021/05/07 07:09:44;;;;;;;0.70;0.60;;;;;;;;;;5080960;28;20032;-77
2021/05/07 07:12:10;;;;;;;0.40;0.40;;;;;;;;;;5082983;28;20047;-77
2021/05/07 07:14:39;;;;;;;0.82;0.47;;;;;;;;;;5097656;28;20032;-78
2021/05/07 07:17:06;;;;;;;0.80;0.38;;;;;;;;;;5081170;28;20012;-77
2021/05/07 07:19:33;;;;;;;0.73;0.30;;;;;;;;;;5076480;28;20025;-77
2021/05/07 07:21:59;;;;;;;0.20;0.20;;;;;;;;;;5091554;28;20044;-78
2021/05/07 07:24:26;;;;;;;0.38;0.28;;;;;;;;;;5101660;28;20036;-78
2021/05/07 07:26:52;;;;;;;0.10;0.10;;;;;;;;;;5086804;28;20032;-78
2021/05/07 07:29:18;;;;;;;0.25;0.25;;;;;;;;;;5090470;28;20020;-78
2021/05/07 07:31:44;;;;;;;0.28;0.28;;;;;;;;;;5097736;28;20052;-77
2021/05/07 07:34:10;;;;;;;2.22;0.30;;;;;;;;;;5097044;28;20088;-77
2021/05/07 07:36:36;;;;;;;0.22;0.22;;;;;;;;;;5089623;28;20036;-78
2021/05/07 07:39:03;;;;;;;0.75;0.30;;;;;;;;;;5084605;28;20017;-77
2021/05/07 07:41:29;;;;;;;0.90;0.40;;;;;;;;;;5082148;28;20029;-78
2021/05/07 07:43:55;;;;;;;1.55;0.30;;;;;;;;;;5079924;28;20137;-78
2021/05/07 07:46:22;;;;;;;0.40;0.40;;;;;;;;;;5079174;28;20028;-78
2021/05/07 07:48:48;;;;;;;0.90;0.38;;;;;;;;;;5080382;28;20093;-79
2021/05/07 07:51:14;;;;;;;1.42;0.32;;;;;;;;;;5083346;28;20020;-78
2021/05/07 07:53:41;;;;;;;0.65;0.32;;;;;;;;;;5101030;28;20016;-79
2021/05/07 07:56:07;;;;;;;1.77;0.50;;;;;;;;;;5099892;28;20028;-79
2021/05/07 07:58:33;;;;;;;1.08;0.70;;;;;;;;;;5100165;28;20024;-78
2021/05/07 08:00:59;;;;;;;2.33;0.73;;;;;;;;;;5103502;28;20017;-79
2021/05/07 08:03:25;;;;;;;4.40;3.80;;;;;;;;;;5090133;28;20019;-78
2021/05/07 08:05:51;;;;;;;4.95;0.80;;;;;;;;;;5094597;28;20020;-77
2021/05/07 08:08:17;;;;;;;3.72;1.80;;;;;;;;;;5102210;28;20035;-77
2021/05/07 08:10:44;;;;;;;0.88;0.68;;;;;;;;;;5103006;28;20051;-77
2021/05/07 08:13:10;;;;;;;1.73;1.50;;;;;;;;;;5094583;28;20100;-77
2021/05/07 08:15:36;;;;;;;4.22;3.35;;;;;;;;;;5077849;28;20371;-78
2021/05/07 08:18:02;;;;;;;1.95;1.02;;;;;;;;;;5080826;28;20099;-77
2021/05/07 08:20:28;;;;;;;0.70;0.68;;;;;;;;;;5083557;28;20025;-78
2021/05/07 08:22:56;;;;;;;1.33;1.23;;;;;;;;;;5099998;28;20406;-78
2021/05/07 08:25:22;;;;;;;1.40;1.30;;;;;;;;;;5100051;28;20031;-78
2021/05/07 08:27:48;;;;;;;4.05;3.00;;;;;;;;;;5102492;28;20080;-77
2021/05/07 08:30:14;;;;;;;5.10;4.13;;;;;;;;;;5116724;28;20012;-77
2021/05/07 08:32:41;;;;;;;2.28;2.08;;;;;;;;;;5079113;28;20040;-77
2021/05/07 08:35:08;;;;;;;2.17;1.98;;;;;;;;;;5084235;28;20083;-77
2021/05/07 08:37:42;;;;;;;0.68;0.68;;;;;;;;;;5097937;28;20468;-78
2021/05/07 08:40:08;;;;;;;0.50;0.50;;;;;;;;;;5104735;28;20038;-77
2021/05/07 08:42:34;;;;;;;1.08;0.40;;;;;;;;;;5089128;28;20062;-78
2021/05/07 08:45:00;;;;;;;0.60;0.60;;;;;;;;;;5084709;28;20047;-78
2021/05/07 08:47:31;;;;;;;41.22;21.83;;;;;;;;;;5088037;28;20047;-78
2021/05/07 08:49:58;;;;;;;40.63;21.35;;;;;;;;;;5083997;28;20021;-79
2021/05/07 08:52:24;;;;;;;5.03;2.70;;;;;;;;;;5081719;28;20016;-79
2021/05/07 08:54:51;;;;;;;17.33;10.02;;;;;;;;;;5081846;28;20184;-79
2021/05/07 08:57:17;;;;;;;15.65;10.60;;;;;;;;;;5081421;28;20025;-79
2021/05/07 08:59:44;;;;;;;6.45;5.07;;;;;;;;;;5082018;28;20020;-80
2021/05/07 09:02:10;;;;;;;12.23;9.68;;;;;;;;;;5081778;28;20021;-80
2021/05/07 09:04:36;;;;;;;7.95;6.13;;;;;;;;;;5081746;28;20028;-80
2021/05/07 09:07:11;;;;;;;8.23;5.70;;;;;;;;;;5086832;28;20020;-79
2021/05/07 09:09:48;;;;;;;1.95;1.35;;;;;;;;;;5101330;28;20054;-79
2021/05/07 09:12:23;;;;;;;1.58;1.42;;;;;;;;;;5100787;28;20460;-80
2021/05/07 09:14:49;;;;;;;1.70;1.52;;;;;;;;;;5102684;28;20108;-79
2021/05/07 09:17:18;;;;;;;3.33;3.13;;;;;;;;;;5099649;28;20468;-79
2021/05/07 09:19:44;;;;;;;2.90;2.60;;;;;;;;;;5097655;28;20087;-79
2021/05/07 09:22:10;;;;;;;0.85;0.80;;;;;;;;;;5095131;28;20028;-78
2021/05/07 09:24:37;;;;;;;0.40;0.38;;;;;;;;;;5085843;28;20028;-80
2021/05/07 09:27:04;;;;;;;0.50;0.40;;;;;;;;;;5084931;28;20426;-80
2021/05/07 09:29:31;;;;;;;0.70;0.70;;;;;;;;;;5086105;28;20050;-78
2021/05/07 09:31:58;;;;;;;0.40;0.40;;;;;;;;;;5085243;28;20021;-80
2021/05/07 09:34:24;;;;;;;1.58;0.47;;;;;;;;;;5087163;28;20086;-79
2021/05/07 09:36:50;;;;;;;0.38;0.32;;;;;;;;;;5088520;28;20080;-78
2021/05/07 09:39:18;;;;;;;1.50;0.35;;;;;;;;;;5087917;28;20021;-78
2021/05/07 09:41:45;;;;;;;0.40;0.40;;;;;;;;;;5091002;28;20495;-78
2021/05/07 09:44:34;;;;;;;0.63;0.50;;;;;;;;;;5087641;28;20025;-79
2021/05/07 09:47:00;;;;;;;0.80;0.80;;;;;;;;;;5085139;28;20043;-79
2021/05/07 09:49:28;;;;;;;3.97;3.25;;;;;;;;;;5089769;28;20030;-79
2021/05/07 09:51:54;;;;;;;7.07;4.22;;;;;;;;;;5089608;28;20044;-80
2021/05/07 09:54:21;;;;;;;19.95;10.95;;;;;;;;;;5087098;28;20042;-78
2021/05/07 09:56:47;;;;;;;17.35;9.77;;;;;;;;;;5096516;28;20017;-78
2021/05/07 09:59:14;;;;;;;10.15;5.63;;;;;;;;;;5090701;28;20052;-78
2021/05/07 10:01:44;;;;;;;11.02;6.43;;;;;;;;;;5087909;28;20505;-77
2021/05/07 10:04:11;;;;;;;9.00;3.70;;;;;;;;;;5089879;28;20025;-79
2021/05/07 10:06:37;;;;;;;15.07;7.65;;;;;;;;;;5088929;28;20079;-78
2021/05/07 10:09:03;;;;;;;13.88;8.30;;;;;;;;;;5089999;28;20059;-78
2021/05/07 10:11:43;;;;;;;7.72;5.05;;;;;;;;;;5083343;28;20032;-78
2021/05/07 10:14:13;;;;;;;1.90;1.70;;;;;;;;;;5082661;28;20028;-78
2021/05/07 10:16:39;;;;;;;3.35;2.72;;;;;;;;;;5082431;28;20032;-77
2021/05/07 10:19:11;;;;;;;2.60;2.40;;;;;;;;;;5082423;28;20061;-78
2021/05/07 10:21:41;;;;;;;1.33;1.30;;;;;;;;;;5081253;28;20040;-77
2021/05/07 10:24:12;;;;;;;0.68;0.68;;;;;;;;;;5078586;28;20123;-79
2021/05/07 10:26:39;;;;;;;1.23;0.73;;;;;;;;;;5077684;28;20021;-79
2021/05/07 10:29:18;;;;;;;0.90;0.80;;;;;;;;;;5076697;28;20025;-79
2021/05/07 10:31:45;;;;;;;1.23;0.52;;;;;;;;;;5075250;28;20016;-79
2021/05/07 10:34:11;;;;;;;1.90;0.30;;;;;;;;;;5078651;28;20017;-79
2021/05/07 10:36:44;;;;;;;0.65;0.65;;;;;;;;;;5077315;28;20088;-78
2021/05/07 10:39:19;;;;;;;0.60;0.60;;;;;;;;;;5078515;28;20039;-80
2021/05/07 10:41:47;;;;;;;0.98;0.60;;;;;;;;;;5081514;28;20392;-78
2021/05/07 10:44:16;;;;;;;1.85;0.65;;;;;;;;;;5082858;28;20024;-79
2021/05/07 10:46:43;;;;;;;1.02;0.90;;;;;;;;;;5080103;28;20084;-77
2021/05/07 10:49:09;;;;;;;2.05;0.85;;;;;;;;;;5084645;28;20040;-79
2021/05/07 10:51:36;;;;;;;0.52;0.52;;;;;;;;;;5089409;28;20028;-79
2021/05/07 10:54:06;;;;;;;0.95;0.90;;;;;;;;;;5103534;28;20036;-78
2021/05/07 10:56:37;;;;;;;0.65;0.65;;;;;;;;;;5068503;22;20046;-77
2021/05/07 10:59:23;;;;;;;1.23;1.10;;;;;;;;;;5037821;28;20444;-77
2021/05/07 11:02:05;;;;;;;1.75;0.80;;;;;;;;;;5036800;28;20033;-76
2021/05/07 11:04:41;;;;;;;2.23;1.20;;;;;;;;;;5036646;28;20481;-78
2021/05/07 11:07:07;;;;;;;1.92;1.60;;;;;;;;;;4999734;28;20112;-77
2021/05/07 11:09:33;;;;;;;1.42;1.30;;;;;;;;;;5017509;28;20474;-77
2021/05/07 11:12:03;;;;;;;1.80;1.70;;;;;;;;;;5016371;28;20612;-77
2021/05/07 11:14:30;;;;;;;1.40;1.30;;;;;;;;;;5017131;28;20029;-77
2021/05/07 11:16:56;;;;;;;4.22;2.90;;;;;;;;;;5016486;28;20033;-76
2021/05/07 11:19:30;;;;;;;8.60;5.70;;;;;;;;;;5012190;28;20029;-77
2021/05/07 11:22:04;;;;;;;5.00;4.15;;;;;;;;;;5012815;28;20026;-77
2021/05/07 11:24:40;;;;;;;3.88;3.20;;;;;;;;;;5015611;28;20029;-77
2021/05/07 11:27:22;;;;;;;3.65;3.10;;;;;;;;;;5016725;28;20025;-77
2021/05/07 11:29:49;;;;;;;2.80;2.10;;;;;;;;;;5015422;28;20426;-76
2021/05/07 11:32:20;;;;;;;1.70;1.60;;;;;;;;;;5014345;28;20033;-76
2021/05/07 11:34:53;;;;;;;2.28;2.08;;;;;;;;;;5015999;28;20049;-76
2021/05/07 11:37:20;;;;;;;1.58;1.48;;;;;;;;;;5016047;28;20390;-76
2021/05/07 11:39:59;;;;;;;2.15;1.95;;;;;;;;;;5015748;28;20037;-77
2021/05/07 11:42:28;;;;;;;2.13;1.75;;;;;;;;;;5030925;28;20034;-75
2021/05/07 11:44:54;;;;;;;2.42;2.22;;;;;;;;;;5015208;28;20122;-76
2021/05/07 11:47:20;;;;;;;2.58;2.38;;;;;;;;;;5015935;28;20041;-77
2021/05/07 11:49:50;;;;;;;2.47;2.30;;;;;;;;;;5030534;28;20026;-76
2021/05/07 11:52:16;;;;;;;2.67;2.47;;;;;;;;;;5015798;28;20077;-76
2021/05/07 11:54:46;;;;;;;3.13;2.92;;;;;;;;;;4998373;28;20033;-76
2021/05/07 11:57:21;;;;;;;5.38;4.43;;;;;;;;;;5015572;28;20034;-76
2021/05/07 11:59:48;;;;;;;4.85;4.28;;;;;;;;;;5015616;28;20545;-76
2021/05/07 12:02:25;;;;;;;3.58;3.28;;;;;;;;;;5015042;28;20033;-74
2021/05/07 12:04:51;;;;;;;3.80;3.40;;;;;;;;;;5017181;28;20061;-77
2021/05/07 12:07:21;;;;;;;3.45;3.15;;;;;;;;;;5016806;28;20026;-77
2021/05/07 12:09:47;;;;;;;3.50;2.80;;;;;;;;;;5014967;28;20026;-76
2021/05/07 12:12:14;;;;;;;3.20;3.00;;;;;;;;;;5014545;28;20450;-75
2021/05/07 12:14:46;;;;;;;3.30;3.00;;;;;;;;;;5014800;28;20026;-74
2021/05/07 12:17:12;;;;;;;;;;;;;;;;;;5015479;28;20503;-75
2021/05/07 12:19:38;;;;;;;2.97;2.65;;;;;;;;;;5011327;28;19920;-76
2021/05/07 12:22:05;;;;;;;4.95;3.05;;;;;;;;;;5010376;28;20080;-76
2021/05/07 12:24:31;;;;;;;3.28;2.92;;;;;;;;;;4998591;28;20073;-77
2021/05/07 12:26:57;;;;;;;3.25;2.78;;;;;;;;;;5016275;28;20026;-76
2021/05/07 12:29:33;;;;;;;3.42;2.88;;;;;;;;;;5015066;28;20018;-77
2021/05/07 12:32:07;;;;;;;4.45;3.10;;;;;;;;;;5014839;28;20033;-76
2021/05/07 12:34:34;;;;;;;3.00;2.75;;;;;;;;;;5014978;28;20025;-77
2021/05/07 12:37:01;;;;;;;3.33;2.97;;;;;;;;;;5014522;28;20418;-77
2021/05/07 12:39:28;;;;;;;3.00;2.70;;;;;;;;;;5014374;28;20032;-78
2021/05/07 12:41:55;;;;;;;2.75;2.55;;;;;;;;;;5014308;28;20030;-77
2021/05/07 12:44:22;;;;;;;3.15;2.83;;;;;;;;;;5014560;28;20108;-77
2021/05/07 12:46:48;;;;;;;3.70;3.25;;;;;;;;;;5016052;28;20026;-76
2021/05/07 12:49:14;;;;;;;2.80;2.55;;;;;;;;;;5013873;28;20058;-77
2021/05/07 12:51:40;;;;;;;5.15;2.72;;;;;;;;;;5016653;28;20026;-78
2021/05/07 12:54:07;;;;;;;2.83;2.58;;;;;;;;;;5017474;28;20454;-76
2021/05/07 12:56:33;;;;;;;2.30;2.10;;;;;;;;;;5014756;28;20076;-76
2021/05/07 12:58:59;;;;;;;3.53;1.80;;;;;;;;;;5014108;28;20026;-76
2021/05/07 13:01:26;;;;;;;2.05;1.67;;;;;;;;;;5014779;28;20036;-77
2021/05/07 13:03:52;;;;;;;1.33;1.23;;;;;;;;;;5008339;28;20041;-77
2021/05/07 13:06:18;;;;;;;1.40;1.30;;;;;;;;;;5009724;28;20026;-77
2021/05/07 13:08:44;;;;;;;1.90;1.60;;;;;;;;;;5013545;28;20037;-74
2021/05/07 13:11:10;;;;;;;2.33;1.80;;;;;;;;;;4995490;28;20022;-75
2021/05/07 13:13:39;;;;;;;2.33;1.27;;;;;;;;;;4994830;28;20030;-74
2021/05/07 13:16:06;;;;;;;4.10;2.90;;;;;;;;;;5013267;28;20033;-76
2021/05/07 13:18:32;;;;;;;3.45;2.20;;;;;;;;;;5013862;28;20026;-74
2021/05/07 13:20:58;;;;;;;2.05;1.63;;;;;;;;;;5013734;28;20036;-75
2021/05/07 13:23:26;;;;;;;3.88;2.80;;;;;;;;;;5013267;28;20072;-74
2021/05/07 13:25:52;;;;;;;7.93;4.75;;;;;;;;;;5013499;28;20109;-75
2021/05/07 13:28:18;;;;;;;5.20;3.95;;;;;;;;;;5012639;28;20363;-75
2021/05/07 13:30:44;;;;;;;4.25;3.22;;;;;;;;;;5013583;28;20025;-74
2021/05/07 13:33:11;;;;;;;3.22;1.92;;;;;;;;;;5013019;28;20018;-74
2021/05/07 13:35:43;;;;;;;2.65;2.45;;;;;;;;;;5012938;28;20061;-75
2021/05/07 13:38:09;;;;;;;2.60;2.08;;;;;;;;;;5012708;28;20045;-74
2021/05/07 13:40:35;;;;;;;2.83;2.55;;;;;;;;;;5013072;28;20137;-75
2021/05/07 13:43:02;;;;;;;2.08;1.70;;;;;;;;;;5012980;28;20123;-74
2021/05/07 13:45:28;;;;;;;1.23;1.20;;;;;;;;;;5013286;28;20040;-75
2021/05/07 13:47:55;;;;;;;5.90;4.43;;;;;;;;;;5013450;28;20032;-75
2021/05/07 13:50:22;;;;;;;3.03;2.30;;;;;;;;;;5000120;28;20529;-75
2021/05/07 13:52:48;;;;;;;2.25;1.50;;;;;;;;;;5012448;28;20044;-78
2021/05/07 13:55:14;;;;;;;1.80;1.38;;;;;;;;;;5020256;28;20026;-75
2021/05/07 13:57:40;;;;;;;2.97;2.15;;;;;;;;;;5002423;28;20030;-75
2021/05/07 14:00:07;;;;;;;2.60;1.25;;;;;;;;;;5028271;28;20030;-76
2021/05/07 14:02:33;;;;;;;1.60;1.50;;;;;;;;;;5004253;28;20105;-74
2021/05/07 14:05:00;;;;;;;2.83;1.80;;;;;;;;;;5011106;28;20034;-74
2021/05/07 14:07:26;;;;;;;5.25;3.03;;;;;;;;;;5013067;28;20105;-73
2021/05/07 14:09:52;;;;;;;3.35;1.98;;;;;;;;;;5012989;28;20104;-72
2021/05/07 14:12:18;;;;;;;1.75;1.50;;;;;;;;;;5012500;28;20030;-73
2021/05/07 14:14:46;;;;;;;1.50;1.40;;;;;;;;;;5011897;28;20018;-74
2021/05/07 14:17:13;;;;;;;2.60;1.63;;;;;;;;;;5026694;28;20109;-72
2021/05/07 14:19:39;;;;;;;3.80;1.75;;;;;;;;;;5007302;28;20026;-73
2021/05/07 14:22:06;;;;;;;2.05;1.55;;;;;;;;;;5015454;28;20390;-73
2021/05/07 14:24:32;;;;;;;3.50;1.55;;;;;;;;;;5015886;28;20033;-73
2021/05/07 14:26:58;;;;;;;2.00;1.42;;;;;;;;;;5016715;28;20052;-72
2021/05/07 14:29:24;;;;;;;2.35;1.58;;;;;;;;;;5016698;28;20096;-75
2021/05/07 14:31:50;;;;;;;31.00;13.55;;;;;;;;;;5016726;28;20032;-74
2021/05/07 14:34:16;;;;;;;16.40;8.98;;;;;;;;;;5016402;28;20490;-73
2021/05/07 14:36:42;;;;;;;6.05;4.15;;;;;;;;;;5031042;28;20076;-74
2021/05/07 14:39:09;;;;;;;8.10;5.85;;;;;;;;;;5016358;28;20041;-73
2021/05/07 14:41:35;;;;;;;21.88;13.05;;;;;;;;;;5016478;28;20030;-74
2021/05/07 14:44:01;;;;;;;14.20;8.02;;;;;;;;;;5016124;28;20029;-73
2021/05/07 14:46:27;;;;;;;16.70;9.35;;;;;;;;;;5016291;28;20106;-73